createdAt,value
2023-08-11T00:03:50.996Z,7.80
2023-08-11T00:08:13.050Z,8.13
2023-08-11T00:12:34.856Z,10.20
2023-08-11T00:16:58.216Z,11.67
2023-08-11T00:21:20.271Z,10.83
2023-08-11T00:25:42.126Z,11.93
2023-08-11T00:30:04.773Z,12.43
2023-08-11T00:34:28.305Z,8.87
2023-08-11T00:38:50.065Z,11.60
2023-08-11T00:43:11.955Z,11.87
2023-08-11T00:47:34.605Z,11.27
2023-08-11T00:51:58.421Z,8.90
2023-08-11T00:56:22.627Z,13.70
2023-08-11T01:00:45.397Z,8.73
2023-08-11T01:05:07.742Z,10.63
2023-08-11T01:09:38.601Z,12.67
2023-08-11T01:14:04.791Z,10.67
2023-08-11T01:18:27.900Z,8.63
2023-08-11T01:22:54.968Z,9.53
2023-08-11T01:27:18.763Z,13.27
2023-08-11T01:31:40.785Z,10.17
2023-08-11T01:36:02.828Z,9.23
2023-08-11T01:40:25.045Z,16.23
2023-08-11T01:44:49.693Z,9.23
2023-08-11T01:49:13.682Z,10.57
2023-08-11T01:53:36.257Z,15.23
2023-08-11T01:57:59.783Z,8.43
2023-08-11T02:02:23.623Z,6.37
2023-08-11T02:06:45.465Z,12.33
2023-08-11T02:11:07.388Z,10.90
2023-08-11T02:15:29.268Z,5.97
2023-08-11T02:19:52.516Z,6.83
2023-08-11T02:24:14.440Z,7.57
2023-08-11T02:28:36.495Z,7.10
2023-08-11T02:32:58.351Z,7.67
2023-08-11T02:37:21.774Z,8.20
2023-08-11T02:41:44.071Z,9.80
2023-08-11T02:46:06.129Z,7.50
2023-08-11T02:50:28.220Z,8.90
2023-08-11T02:54:51.567Z,7.57
2023-08-11T02:59:13.926Z,10.70
2023-08-11T03:03:36.102Z,7.03
2023-08-11T03:07:58.260Z,6.13
2023-08-11T03:12:21.488Z,9.60
2023-08-11T03:16:43.645Z,8.10
2023-08-11T03:21:17.873Z,8.43
2023-08-11T03:25:42.269Z,13.20
2023-08-11T03:30:07.324Z,6.77
2023-08-11T03:34:29.691Z,6.83
2023-08-11T03:38:52.241Z,8.57
2023-08-11T03:43:14.438Z,8.37
2023-08-11T03:47:38.150Z,9.43
2023-08-11T03:52:00.666Z,11.13
2023-08-11T03:56:22.569Z,9.40
2023-08-11T04:00:44.780Z,11.60
2023-08-11T04:05:08.818Z,7.03
2023-08-11T04:09:30.777Z,8.23
2023-08-11T04:13:53.040Z,14.87
2023-08-11T04:18:14.825Z,7.33
2023-08-11T04:22:39.455Z,7.57
2023-08-11T04:31:39.679Z,11.23
2023-08-11T04:36:01.547Z,10.60
2023-08-11T04:40:24.776Z,10.17
2023-08-11T04:44:46.828Z,8.23
2023-08-11T04:49:08.676Z,8.97
2023-08-11T04:53:31.358Z,11.77
2023-08-11T04:57:54.825Z,11.60
2023-08-11T05:02:16.684Z,11.10
2023-08-11T05:06:40.324Z,9.70
2023-08-11T05:11:02.214Z,10.40
2023-08-11T05:15:25.524Z,9.17
2023-08-11T05:19:47.794Z,6.10
2023-08-11T05:24:09.852Z,8.57
2023-08-11T05:28:31.965Z,9.27
2023-08-11T05:32:55.645Z,7.57
2023-08-11T05:37:17.815Z,10.33
2023-08-11T05:41:40.354Z,8.10
2023-08-11T05:46:03.426Z,5.67
2023-08-11T05:50:28.085Z,9.30
2023-08-11T05:54:51.617Z,9.43
2023-08-11T05:59:13.670Z,12.43
2023-08-11T06:03:37.110Z,6.63
2023-08-11T06:08:06.726Z,9.27
2023-08-11T06:12:29.480Z,8.67
2023-08-11T06:16:51.499Z,9.63
2023-08-11T06:21:14.171Z,8.07
2023-08-11T06:25:37.980Z,7.77
2023-08-11T06:29:59.884Z,9.10
2023-08-11T06:34:23.084Z,9.37
2023-08-11T06:38:45.103Z,9.73
2023-08-11T06:43:12.496Z,9.53
2023-08-11T06:47:35.458Z,7.93
2023-08-11T06:51:57.293Z,9.30
2023-08-11T06:56:19.383Z,12.73
2023-08-11T07:00:42.778Z,8.97
2023-08-11T07:05:06.113Z,14.33
2023-08-11T07:09:29.533Z,10.07
2023-08-11T07:13:51.636Z,9.60
2023-08-11T07:18:19.600Z,8.77
2023-08-11T07:22:41.785Z,8.00
2023-08-11T07:27:04.274Z,6.63
2023-08-11T07:31:26.159Z,5.57
2023-08-11T07:35:49.529Z,10.97
2023-08-11T07:40:12.092Z,7.57
2023-08-11T07:44:35.431Z,10.15
2023-08-11T07:48:57.385Z,7.93
2023-08-11T07:53:20.596Z,6.07
2023-08-11T07:57:42.535Z,11.02
2023-08-11T08:02:06.216Z,9.93
2023-08-11T08:06:28.110Z,6.78
2023-08-11T08:10:51.626Z,12.60
2023-08-11T08:15:14.723Z,8.55
2023-08-11T08:19:36.979Z,6.45
2023-08-11T08:23:59.821Z,5.85
2023-08-11T08:28:23.159Z,5.80
2023-08-11T08:32:45.544Z,4.38
2023-08-11T08:37:08.069Z,4.38
2023-08-11T08:41:32.461Z,6.18
2023-08-11T08:45:57.614Z,8.07
2023-08-11T08:50:22.531Z,3.65
2023-08-11T08:54:45.639Z,8.55
2023-08-11T08:59:09.365Z,6.57
2023-08-11T09:03:36.044Z,4.32
2023-08-11T09:07:59.140Z,7.47
2023-08-11T09:12:21.332Z,5.13
2023-08-11T09:16:43.880Z,4.45
2023-08-11T09:21:14.498Z,3.08
2023-08-11T09:25:37.578Z,3.35
2023-08-11T09:29:59.442Z,5.47
2023-08-11T09:34:24.396Z,4.53
2023-08-11T09:38:51.590Z,6.07
2023-08-11T09:43:16.178Z,7.07
2023-08-11T09:47:38.569Z,8.48
2023-08-11T09:52:03.249Z,4.20
2023-08-11T09:56:30.358Z,4.53
2023-08-11T10:00:59.097Z,2.53
2023-08-11T10:05:31.791Z,3.03
2023-08-11T10:09:53.841Z,2.40
2023-08-11T10:14:21.597Z,2.30
2023-08-11T10:18:44.979Z,4.22
2023-08-11T10:23:08.723Z,5.10
2023-08-11T10:27:32.481Z,4.40
2023-08-11T10:31:57.320Z,4.32
2023-08-11T10:36:23.535Z,3.13
2023-08-11T10:40:45.652Z,3.60
2023-08-11T10:45:09.570Z,3.03
2023-08-11T10:49:34.274Z,3.92
2023-08-11T10:53:58.980Z,3.88
2023-08-11T10:58:23.923Z,5.30
2023-08-11T11:02:49.011Z,7.03
2023-08-11T11:07:14.390Z,4.80
2023-08-11T11:11:37.046Z,3.95
2023-08-11T11:16:02.136Z,3.03
2023-08-11T11:20:28.103Z,3.78
2023-08-11T11:24:55.090Z,3.85
2023-08-11T11:29:20.769Z,5.10
2023-08-11T11:33:43.314Z,5.28
2023-08-11T11:38:05.247Z,4.03
2023-08-11T11:42:30.479Z,5.80
2023-08-11T11:46:54.947Z,3.92
2023-08-11T11:51:19.410Z,5.15
2023-08-11T11:55:45.041Z,4.18
2023-08-11T12:00:10.662Z,6.60
2023-08-11T12:04:38.057Z,8.05
2023-08-11T12:09:02.044Z,3.08
2023-08-11T12:13:23.845Z,4.68
2023-08-11T12:17:48.769Z,3.42
2023-08-11T12:22:14.811Z,5.97
2023-08-11T12:26:36.615Z,7.47
2023-08-11T12:30:58.509Z,5.93
2023-08-11T12:35:22.125Z,4.97
2023-08-11T12:39:46.119Z,4.65
2023-08-11T12:44:08.021Z,2.60
2023-08-11T12:48:29.851Z,4.10
2023-08-11T12:52:52.989Z,2.75
2023-08-11T12:57:17.432Z,5.05
2023-08-11T13:01:40.435Z,3.78
2023-08-11T13:06:02.308Z,4.28
2023-08-11T13:10:25.542Z,2.53
2023-08-11T13:14:50.050Z,4.90
2023-08-11T13:19:14.374Z,5.65
2023-08-11T13:23:36.779Z,4.07
2023-08-11T13:28:02.621Z,3.25
2023-08-11T13:32:24.736Z,2.38
2023-08-11T13:36:47.302Z,3.28
2023-08-11T13:41:09.532Z,4.07
2023-08-11T13:45:32.994Z,5.97
2023-08-11T13:49:55.057Z,5.30
2023-08-11T13:54:16.995Z,2.88
2023-08-11T13:58:39.327Z,4.68
2023-08-11T14:03:02.582Z,5.20
2023-08-11T14:07:32.266Z,5.95
2023-08-11T14:11:55.305Z,3.80
2023-08-11T14:16:18.146Z,6.05
2023-08-11T14:20:41.454Z,6.63
2023-08-11T14:25:03.903Z,5.75
2023-08-11T14:29:25.971Z,7.45
2023-08-11T14:33:48.391Z,8.02
2023-08-11T14:38:11.685Z,7.18
2023-08-11T14:42:33.556Z,5.00
2023-08-11T14:46:55.789Z,7.97
2023-08-11T14:51:18.423Z,7.65
2023-08-11T14:55:42.219Z,8.18
2023-08-11T15:00:06.286Z,3.42
2023-08-11T15:04:28.405Z,10.43
2023-08-11T15:08:50.483Z,5.25
2023-08-11T15:13:16.875Z,7.00
2023-08-11T15:17:39.322Z,6.13
2023-08-11T15:22:01.207Z,6.20
2023-08-11T15:26:23.035Z,6.30
2023-08-11T15:30:46.683Z,3.63
2023-08-11T15:35:09.817Z,9.00
2023-08-11T15:39:31.928Z,6.10
2023-08-11T15:43:54.175Z,4.82
2023-08-11T15:48:17.806Z,6.57
2023-08-11T15:52:39.726Z,3.38
2023-08-11T15:57:02.106Z,6.38
2023-08-11T16:01:24.389Z,7.05
2023-08-11T16:05:48.014Z,4.60
2023-08-11T16:10:11.476Z,5.75
2023-08-11T16:14:33.795Z,5.60
2023-08-11T16:18:55.734Z,5.55
2023-08-11T16:23:18.979Z,7.32
2023-08-11T16:27:41.553Z,7.22
2023-08-11T16:32:03.755Z,7.15
2023-08-11T16:36:25.783Z,4.03
2023-08-11T16:40:49.226Z,4.85
2023-08-11T16:45:11.424Z,5.20
2023-08-11T16:49:33.366Z,8.80
2023-08-11T16:53:56.710Z,6.85
2023-08-11T16:58:20.342Z,5.70
2023-08-11T17:02:42.808Z,10.30
2023-08-11T17:07:04.957Z,12.02
2023-08-11T17:11:27.875Z,6.15
2023-08-11T17:15:51.097Z,12.60
2023-08-11T17:20:13.221Z,6.97
2023-08-11T17:24:35.378Z,5.22
2023-08-11T17:28:57.320Z,8.73
2023-08-11T17:33:20.855Z,13.65
2023-08-11T17:37:43.143Z,11.77
2023-08-11T17:42:07.197Z,10.93
2023-08-11T17:46:32.297Z,6.47
2023-08-11T17:50:55.605Z,9.05
2023-08-11T17:55:19.973Z,9.93
2023-08-11T17:59:42.170Z,17.58
2023-08-11T18:04:07.939Z,13.40
2023-08-11T18:08:32.049Z,13.52
2023-08-11T18:12:53.977Z,12.32
2023-08-11T18:17:16.161Z,15.10
2023-08-11T18:21:39.172Z,12.10
2023-08-11T18:26:03.927Z,9.82
2023-08-11T18:30:25.897Z,8.77
2023-08-11T18:34:47.938Z,9.88
2023-08-11T18:39:10.029Z,3.78
2023-08-11T18:43:33.221Z,8.25
2023-08-11T18:47:57.686Z,3.92
2023-08-11T18:52:20.047Z,4.30
2023-08-11T18:56:49.284Z,6.07
2023-08-11T19:01:13.010Z,10.23
2023-08-11T19:05:35.287Z,8.83
2023-08-11T19:09:58.904Z,8.67
2023-08-11T19:14:21.125Z,6.72
2023-08-11T19:18:47.134Z,5.80
2023-08-11T19:23:09.246Z,3.73
2023-08-11T19:27:32.113Z,9.20
2023-08-11T19:31:54.030Z,7.50
2023-08-11T19:36:19.559Z,10.17
2023-08-11T19:40:44.780Z,5.77
2023-08-11T19:45:07.753Z,6.43
2023-08-11T19:49:32.779Z,6.13
2023-08-11T19:53:55.853Z,9.30
2023-08-11T19:58:18.962Z,7.83
2023-08-11T20:02:42.222Z,3.83
2023-08-11T20:07:04.178Z,3.80
2023-08-11T20:11:27.804Z,3.73
2023-08-11T20:15:57.300Z,2.77
2023-08-11T20:20:22.269Z,6.53
2023-08-11T20:24:44.161Z,10.20
2023-08-11T20:29:08.018Z,4.27
2023-08-11T20:33:29.888Z,7.13
2023-08-11T20:37:55.591Z,12.90
2023-08-11T20:42:17.723Z,5.70
2023-08-11T20:46:41.110Z,9.87
2023-08-11T20:51:05.227Z,5.60
2023-08-11T20:55:28.579Z,9.37
2023-08-11T20:59:50.974Z,12.37
2023-08-11T21:04:15.063Z,9.17
2023-08-11T21:08:45.691Z,11.23
2023-08-11T21:13:08.309Z,11.20
2023-08-11T21:17:30.483Z,12.20
2023-08-11T21:21:54.180Z,10.27
2023-08-11T21:26:15.992Z,11.07
2023-08-11T21:30:39.207Z,11.67
2023-08-11T21:35:01.067Z,14.83
2023-08-11T21:39:24.184Z,15.23
2023-08-11T21:43:46.312Z,16.03
2023-08-11T21:48:08.372Z,13.30
2023-08-11T21:52:30.485Z,13.57
2023-08-11T21:56:54.799Z,15.50
2023-08-11T22:01:17.103Z,14.00
2023-08-11T22:05:39.218Z,12.00
2023-08-11T22:10:01.346Z,16.30
2023-08-11T22:14:24.544Z,15.87
2023-08-11T22:18:46.737Z,14.47
2023-08-11T22:23:08.555Z,17.40
2023-08-11T22:27:30.640Z,15.30
2023-08-11T22:31:53.794Z,37.60
2023-08-11T22:36:15.821Z,15.73
2023-08-11T22:40:38.307Z,13.93
2023-08-11T22:45:00.405Z,12.60
2023-08-11T22:49:23.556Z,11.53
2023-08-11T22:53:45.649Z,12.50
2023-08-11T22:58:07.430Z,10.00
2023-08-11T23:02:29.480Z,10.93
2023-08-11T23:06:52.666Z,10.60
2023-08-11T23:11:16.010Z,10.07
2023-08-11T23:15:37.817Z,12.60
2023-08-11T23:20:00.292Z,10.47
2023-08-11T23:24:23.632Z,10.37
2023-08-11T23:28:45.431Z,9.13
2023-08-11T23:33:07.357Z,11.77
2023-08-11T23:37:29.166Z,14.77
2023-08-11T23:41:52.329Z,13.70
2023-08-11T23:46:14.201Z,13.10
2023-08-11T23:50:36.069Z,11.03
2023-08-11T23:54:58.066Z,10.70
2023-08-11T23:59:21.167Z,10.50
